createdAt,value
2022-10-25T00:00:57.711Z,39.30
2022-10-25T00:03:24.755Z,37.80
2022-10-25T00:05:51.908Z,40.20
2022-10-25T00:08:19.050Z,40.10
2022-10-25T00:10:46.096Z,45.50
2022-10-25T00:13:13.137Z,45.30
2022-10-25T00:15:40.398Z,45.00
2022-10-25T00:18:07.546Z,43.40
2022-10-25T00:20:37.051Z,42.60
2022-10-25T00:23:04.026Z,37.20
2022-10-25T00:25:31.051Z,37.80
2022-10-25T00:27:58.089Z,36.30
2022-10-25T00:30:25.237Z,35.90
2022-10-25T00:32:53.046Z,33.00
2022-10-25T00:35:20.156Z,32.40
2022-10-25T00:37:47.199Z,31.00
2022-10-25T00:40:14.247Z,32.20
2022-10-25T00:42:41.220Z,30.50
2022-10-25T00:45:25.960Z,32.20
2022-10-25T00:48:15.324Z,31.90
2022-10-25T00:50:52.202Z,29.10
2022-10-25T00:53:25.904Z,31.00
2022-10-25T00:55:56.769Z,28.40
2022-10-25T00:58:24.613Z,29.90
2022-10-25T01:00:51.657Z,30.20
2022-10-25T01:03:19.629Z,31.50
2022-10-25T01:05:46.539Z,34.10
2022-10-25T01:08:13.609Z,33.30
2022-10-25T01:10:40.655Z,32.50
2022-10-25T01:13:07.695Z,46.50
2022-10-25T01:15:57.832Z,45.90
2022-10-25T01:18:38.777Z,47.10
2022-10-25T01:21:14.989Z,41.60
2022-10-25T01:23:54.582Z,39.50
2022-10-25T01:26:43.308Z,34.70
2022-10-25T01:32:24.367Z,30.30
2022-10-25T01:34:56.742Z,29.70
2022-10-25T01:37:27.848Z,27.80
2022-10-25T01:40:00.157Z,27.20
2022-10-25T01:42:36.321Z,27.60
2022-10-25T01:45:08.193Z,28.40
2022-10-25T01:50:51.384Z,30.80
2022-10-25T01:53:18.420Z,27.60
2022-10-25T01:55:54.463Z,27.80
2022-10-25T01:58:37.498Z,27.10
2022-10-25T02:01:26.653Z,28.60
2022-10-25T02:04:17.161Z,28.80
2022-10-25T02:07:00.934Z,27.90
2022-10-25T02:09:39.621Z,27.20
2022-10-25T02:12:07.694Z,26.90
2022-10-25T02:14:37.569Z,27.40
2022-10-25T02:17:19.469Z,29.20
2022-10-25T02:19:59.478Z,28.30
2022-10-25T02:22:29.694Z,28.00
2022-10-25T02:24:56.720Z,26.80
2022-10-25T02:27:23.685Z,27.70
2022-10-25T02:29:50.711Z,28.50
2022-10-25T02:32:17.922Z,30.50
2022-10-25T02:34:48.062Z,32.00
2022-10-25T02:37:15.030Z,30.90
2022-10-25T02:39:41.995Z,29.80
2022-10-25T02:42:09.435Z,29.70
2022-10-25T02:44:36.491Z,29.20
2022-10-25T02:47:03.527Z,32.30
2022-10-25T02:49:30.686Z,31.20
2022-10-25T02:51:57.721Z,32.60
2022-10-25T02:54:24.974Z,30.20
2022-10-25T02:56:52.762Z,29.20
2022-10-25T02:59:21.334Z,29.90
2022-10-25T03:01:48.960Z,30.10
2022-10-25T03:04:16.451Z,30.90
2022-10-25T03:06:43.499Z,30.40
2022-10-25T03:09:10.539Z,30.40
2022-10-25T03:11:37.584Z,30.30
2022-10-25T03:14:04.577Z,28.20
2022-10-25T03:16:31.576Z,31.10
2022-10-25T03:18:59.275Z,29.60
2022-10-25T03:21:26.492Z,32.80
2022-10-25T03:23:53.546Z,30.40
2022-10-25T03:26:20.688Z,32.50
2022-10-25T03:28:47.743Z,31.00
2022-10-25T03:31:16.316Z,32.20
2022-10-25T03:33:43.552Z,29.50
2022-10-25T03:36:10.544Z,30.60
2022-10-25T03:38:37.462Z,29.80
2022-10-25T03:41:04.739Z,29.30
2022-10-25T03:43:31.636Z,29.30
2022-10-25T03:45:58.769Z,31.60
2022-10-25T03:48:25.699Z,32.40
2022-10-25T03:50:53.502Z,35.10
2022-10-25T03:53:20.545Z,33.40
2022-10-25T03:55:48.301Z,32.20
2022-10-25T03:58:15.239Z,31.50
2022-10-25T04:00:42.198Z,33.30
2022-10-25T04:03:09.176Z,34.40
2022-10-25T04:05:36.162Z,34.20
2022-10-25T04:08:03.180Z,35.10
2022-10-25T04:10:30.214Z,34.70
2022-10-25T04:12:57.211Z,34.50
2022-10-25T04:15:24.521Z,34.80
2022-10-25T04:17:51.959Z,34.90
2022-10-25T04:20:19.069Z,34.30
2022-10-25T04:22:46.051Z,37.30
2022-10-25T04:25:13.119Z,34.60
2022-10-25T04:27:40.031Z,32.90
2022-10-25T04:30:07.401Z,33.60
2022-10-25T04:32:34.349Z,33.40
2022-10-25T04:35:01.196Z,33.70
2022-10-25T04:37:46.175Z,35.10
2022-10-25T04:40:13.307Z,32.50
2022-10-25T04:42:40.396Z,32.10
2022-10-25T04:45:07.784Z,33.70
2022-10-25T04:47:34.898Z,33.60
2022-10-25T04:50:02.050Z,33.10
2022-10-25T04:52:29.978Z,32.80
2022-10-25T04:54:57.236Z,31.30
2022-10-25T04:57:24.729Z,31.00
2022-10-25T04:59:52.932Z,29.00
2022-10-25T05:02:19.879Z,29.90
2022-10-25T05:04:46.723Z,30.00
2022-10-25T05:07:13.760Z,30.40
2022-10-25T05:09:43.853Z,27.70
2022-10-25T05:14:40.700Z,29.00
2022-10-25T05:17:07.640Z,29.40
2022-10-25T05:19:34.586Z,32.60
2022-10-25T05:22:01.485Z,31.10
2022-10-25T05:24:28.405Z,29.50
2022-10-25T05:26:55.400Z,29.00
2022-10-25T05:29:22.283Z,27.90
2022-10-25T05:31:49.200Z,30.50
2022-10-25T05:34:16.212Z,30.70
2022-10-25T05:36:43.248Z,30.00
2022-10-25T05:39:10.127Z,30.20
2022-10-25T05:41:37.568Z,30.10
2022-10-25T05:44:05.538Z,29.10
2022-10-25T05:46:33.075Z,29.50
2022-10-25T05:49:00.273Z,31.50
2022-10-25T05:51:33.079Z,30.10
2022-10-25T05:54:14.178Z,29.80
2022-10-25T05:56:41.763Z,31.20
2022-10-25T05:59:13.115Z,33.70
2022-10-25T06:01:46.583Z,34.30
2022-10-25T06:04:13.894Z,33.60
2022-10-25T06:06:42.815Z,32.20
2022-10-25T06:09:09.832Z,29.70
2022-10-25T06:11:37.232Z,28.80
2022-10-25T06:14:04.421Z,29.40
2022-10-25T06:16:31.412Z,28.50
2022-10-25T06:18:58.370Z,29.80
2022-10-25T06:21:26.897Z,29.90
2022-10-25T06:23:54.238Z,29.60
2022-10-25T06:26:23.236Z,29.40
2022-10-25T06:28:55.260Z,28.60
2022-10-25T06:31:31.736Z,30.40
2022-10-25T06:34:00.444Z,30.90
2022-10-25T06:36:27.954Z,29.70
2022-10-25T06:38:55.034Z,29.10
2022-10-25T06:41:26.257Z,30.70
2022-10-25T06:43:53.271Z,31.60
2022-10-25T06:46:21.755Z,34.60
2022-10-25T06:48:53.171Z,35.40
2022-10-25T06:51:23.364Z,33.80
2022-10-25T06:54:09.790Z,32.40
2022-10-25T06:56:36.934Z,33.80
2022-10-25T06:59:03.878Z,31.80
2022-10-25T07:01:30.903Z,32.30
2022-10-25T07:03:58.780Z,32.50
2022-10-25T07:06:27.588Z,30.90
2022-10-25T07:08:55.755Z,30.20
2022-10-25T07:11:23.366Z,29.40
2022-10-25T07:13:50.321Z,31.60
2022-10-25T07:16:18.616Z,34.90
2022-10-25T07:18:45.755Z,31.70
2022-10-25T07:21:14.224Z,30.00
2022-10-25T07:23:44.195Z,31.20
2022-10-25T07:26:18.301Z,31.30
2022-10-25T07:28:46.310Z,32.40
2022-10-25T07:31:33.201Z,32.90
2022-10-25T07:34:01.096Z,33.00
2022-10-25T07:36:27.995Z,32.40
2022-10-25T07:38:54.977Z,32.30
2022-10-25T07:41:24.157Z,32.00
2022-10-25T07:43:51.291Z,34.80
2022-10-25T07:46:21.645Z,34.20
2022-10-25T07:48:48.535Z,31.00
2022-10-25T07:51:16.693Z,35.10
2022-10-25T07:53:44.041Z,33.30
2022-10-25T07:56:32.283Z,34.30
2022-10-25T07:58:59.385Z,34.20
2022-10-25T08:01:27.723Z,41.30
2022-10-25T08:03:55.227Z,36.60
2022-10-25T08:06:23.228Z,34.50
2022-10-25T08:08:50.179Z,36.10
2022-10-25T08:11:17.172Z,33.90
2022-10-25T08:13:44.258Z,33.50
2022-10-25T08:16:11.178Z,28.90
2022-10-25T08:18:38.198Z,24.30
2022-10-25T08:21:07.593Z,22.00
2022-10-25T08:23:35.159Z,19.50
2022-10-25T08:26:02.310Z,21.00
2022-10-25T08:28:31.651Z,18.80
2022-10-25T08:31:01.062Z,16.80
2022-10-25T08:33:31.952Z,15.50
2022-10-25T08:36:14.177Z,14.00
2022-10-25T08:38:50.709Z,15.60
2022-10-25T08:41:23.112Z,14.60
2022-10-25T08:44:10.077Z,14.60
2022-10-25T08:46:41.630Z,14.70
2022-10-25T08:49:20.048Z,14.40
2022-10-25T08:51:48.259Z,14.60
2022-10-25T08:54:20.139Z,15.30
2022-10-25T08:57:10.706Z,14.90
2022-10-25T08:59:47.273Z,13.20
2022-10-25T09:02:55.100Z,12.20
2022-10-25T09:05:40.432Z,13.20
2022-10-25T09:08:22.837Z,13.20
2022-10-25T09:11:25.948Z,12.90
2022-10-25T09:14:01.249Z,12.50
2022-10-25T09:16:48.295Z,12.80
2022-10-25T09:19:24.669Z,13.40
2022-10-25T09:22:02.149Z,12.60
2022-10-25T09:24:33.056Z,13.50
2022-10-25T09:27:10.002Z,12.60
2022-10-25T09:29:50.019Z,12.80
2022-10-25T09:32:26.795Z,13.90
2022-10-25T09:34:53.832Z,13.80
2022-10-25T09:37:27.958Z,13.10
2022-10-25T09:40:06.931Z,13.20
2022-10-25T09:42:37.472Z,14.20
2022-10-25T09:45:07.605Z,15.60
2022-10-25T09:47:40.876Z,14.60
2022-10-25T09:50:20.244Z,14.50
2022-10-25T09:53:09.404Z,13.80
2022-10-25T09:55:54.968Z,14.60
2022-10-25T09:58:22.607Z,14.10
2022-10-25T10:00:51.108Z,15.90
2022-10-25T10:03:22.995Z,17.10
2022-10-25T10:05:59.976Z,16.80
2022-10-25T10:08:30.595Z,18.40
2022-10-25T10:11:05.690Z,18.20
2022-10-25T10:13:44.509Z,18.50
2022-10-25T10:16:15.042Z,16.90
2022-10-25T10:18:43.828Z,16.60
2022-10-25T10:21:10.829Z,16.80
2022-10-25T10:23:46.142Z,16.00
2022-10-25T10:26:29.345Z,16.60
2022-10-25T10:29:27.772Z,16.70
2022-10-25T10:31:56.452Z,16.90
2022-10-25T10:34:29.425Z,15.40
2022-10-25T10:39:29.257Z,16.30
2022-10-25T10:42:03.976Z,16.90
2022-10-25T10:44:34.680Z,18.70
2022-10-25T10:47:20.450Z,115.30
2022-10-25T10:51:53.100Z,16.50
2022-10-25T10:55:02.381Z,16.40
2022-10-25T10:59:46.262Z,16.70
2022-10-25T11:02:26.180Z,16.30
2022-10-25T11:04:55.471Z,16.10
2022-10-25T11:07:32.363Z,17.30
2022-10-25T11:10:38.817Z,17.70
2022-10-25T11:13:07.746Z,17.40
2022-10-25T11:16:24.318Z,16.90
2022-10-25T11:19:09.269Z,16.40
2022-10-25T11:25:25.957Z,16.20
2022-10-25T11:28:16.912Z,16.70
2022-10-25T11:31:21.723Z,17.00
2022-10-25T11:33:57.169Z,15.70
2022-10-25T11:36:24.137Z,16.70
2022-10-25T11:39:02.647Z,20.20
2022-10-25T11:41:52.432Z,21.20
2022-10-25T11:44:30.901Z,21.10
2022-10-25T11:47:44.584Z,18.60
2022-10-25T11:50:24.641Z,16.70
2022-10-25T11:53:01.044Z,17.30
2022-10-25T11:55:54.998Z,16.80
2022-10-25T11:58:37.320Z,16.40
2022-10-25T12:01:18.315Z,15.60
2022-10-25T12:04:04.350Z,15.40
2022-10-25T12:06:34.471Z,16.70
2022-10-25T12:09:45.869Z,15.90
2022-10-25T12:12:18.080Z,15.40
2022-10-25T12:14:48.862Z,15.60
2022-10-25T12:17:36.055Z,16.40
2022-10-25T12:20:05.559Z,15.60
2022-10-25T12:22:41.701Z,16.60
2022-10-25T12:25:28.236Z,14.50
2022-10-25T12:28:43.172Z,13.80
2022-10-25T12:31:14.498Z,14.90
2022-10-25T12:34:02.585Z,15.50
2022-10-25T12:36:36.527Z,14.70
2022-10-25T12:39:07.067Z,12.80
2022-10-25T12:41:37.312Z,12.40
2022-10-25T12:44:22.898Z,11.80
2022-10-25T12:47:08.076Z,12.70
2022-10-25T12:50:06.026Z,10.80
2022-10-25T12:52:38.026Z,8.80
2022-10-25T12:55:44.345Z,8.10
2022-10-25T12:58:17.254Z,7.70
2022-10-25T13:03:42.326Z,7.20
2022-10-25T13:06:56.520Z,5.70
2022-10-25T13:09:31.944Z,5.30
2022-10-25T13:12:20.097Z,5.90
2022-10-25T13:14:50.755Z,5.50
2022-10-25T13:17:20.663Z,5.50
2022-10-25T13:19:56.223Z,6.50
2022-10-25T13:22:37.423Z,5.20
2022-10-25T13:25:12.823Z,4.10
2022-10-25T13:27:41.267Z,4.30
2022-10-25T13:30:32.333Z,4.70
2022-10-25T13:33:19.083Z,5.00
2022-10-25T13:35:48.975Z,4.60
2022-10-25T13:38:39.741Z,4.20
2022-10-25T13:41:08.153Z,4.00
2022-10-25T13:43:59.984Z,3.10
2022-10-25T13:46:30.512Z,2.60
2022-10-25T13:48:57.629Z,2.70
2022-10-25T13:51:24.484Z,2.50
2022-10-25T13:53:52.236Z,3.10
2022-10-25T13:56:22.447Z,2.30
2022-10-25T13:58:53.559Z,2.20
2022-10-25T14:01:25.018Z,2.40
2022-10-25T14:04:19.994Z,2.80
2022-10-25T14:06:47.465Z,2.50
2022-10-25T14:09:33.713Z,3.10
2022-10-25T14:12:06.594Z,2.40
2022-10-25T14:14:49.176Z,2.50
2022-10-25T14:17:19.510Z,1.80
2022-10-25T14:19:48.210Z,1.90
2022-10-25T14:22:27.894Z,2.00
2022-10-25T14:24:57.338Z,1.10
2022-10-25T14:27:31.684Z,1.30
2022-10-25T14:30:20.547Z,3.60
2022-10-25T14:33:01.074Z,5.30
2022-10-25T14:35:32.925Z,4.20
2022-10-25T14:38:00.579Z,2.60
2022-10-25T14:40:31.577Z,2.60
2022-10-25T14:43:27.969Z,2.40
2022-10-25T14:46:03.631Z,1.60
2022-10-25T14:48:30.693Z,1.60
2022-10-25T14:50:59.336Z,1.70
2022-10-25T14:53:26.513Z,2.50
2022-10-25T14:55:55.416Z,2.70
2022-10-25T14:58:22.713Z,2.10
2022-10-25T15:00:54.605Z,1.80
2022-10-25T15:03:21.902Z,4.70
2022-10-25T15:05:48.829Z,2.10
2022-10-25T15:08:21.267Z,2.60
2022-10-25T15:10:53.520Z,1.80
2022-10-25T15:13:27.745Z,1.50
2022-10-25T15:15:55.031Z,1.50
2022-10-25T15:18:38.065Z,1.30
2022-10-25T15:21:17.956Z,1.20
2022-10-25T15:24:05.359Z,1.10
2022-10-25T15:26:35.709Z,1.30
2022-10-25T15:29:07.713Z,1.40
2022-10-25T15:31:34.665Z,1.40
2022-10-25T15:34:05.035Z,2.20
2022-10-25T15:36:32.813Z,1.50
2022-10-25T15:39:11.414Z,1.70
2022-10-25T15:41:43.504Z,1.80
2022-10-25T15:44:10.980Z,1.60
2022-10-25T15:46:38.298Z,1.50
2022-10-25T15:49:06.942Z,1.50
2022-10-25T15:51:34.538Z,1.80
2022-10-25T15:54:01.719Z,2.40
2022-10-25T15:56:29.203Z,2.60
2022-10-25T15:58:58.712Z,2.90
2022-10-25T16:01:25.828Z,5.00
2022-10-25T16:03:55.252Z,5.90
2022-10-25T16:06:24.836Z,5.40
2022-10-25T16:08:56.591Z,4.20
2022-10-25T16:11:26.022Z,5.10
2022-10-25T16:13:52.972Z,4.80
2022-10-25T16:16:40.429Z,5.30
2022-10-25T16:19:15.979Z,5.00
2022-10-25T16:21:43.391Z,4.80
2022-10-25T16:24:11.130Z,4.30
2022-10-25T16:26:41.245Z,4.30
2022-10-25T16:29:14.028Z,4.60
2022-10-25T16:31:41.029Z,3.90
2022-10-25T16:34:07.974Z,3.90
2022-10-25T16:36:34.915Z,3.90
2022-10-25T16:39:06.882Z,4.50
2022-10-25T16:41:34.234Z,3.50
2022-10-25T16:44:01.106Z,4.00
2022-10-25T16:46:28.153Z,5.40
2022-10-25T16:48:57.030Z,5.30
2022-10-25T16:51:26.541Z,6.80
2022-10-25T16:53:53.495Z,5.80
2022-10-25T16:56:20.614Z,6.00
2022-10-25T16:58:47.570Z,6.40
2022-10-25T17:01:28.073Z,5.90
2022-10-25T17:03:55.188Z,7.00
2022-10-25T17:06:40.764Z,7.40
2022-10-25T17:09:09.218Z,6.20
2022-10-25T17:11:36.885Z,7.20
2022-10-25T17:14:03.965Z,8.90
2022-10-25T17:16:31.053Z,9.10
2022-10-25T17:18:58.159Z,9.20
2022-10-25T17:21:25.027Z,10.70
2022-10-25T17:23:51.938Z,10.40
2022-10-25T17:26:19.141Z,9.30
2022-10-25T17:28:46.044Z,8.60
2022-10-25T17:31:14.628Z,9.60
2022-10-25T17:33:42.067Z,10.30
2022-10-25T17:36:11.019Z,9.20
2022-10-25T17:38:38.021Z,9.30
2022-10-25T17:41:05.107Z,9.10
2022-10-25T17:43:32.264Z,8.70
2022-10-25T17:46:01.303Z,9.10
2022-10-25T17:48:28.612Z,9.60
2022-10-25T17:51:04.016Z,10.10
2022-10-25T17:53:31.033Z,10.30
2022-10-25T17:56:13.142Z,10.00
2022-10-25T17:58:41.356Z,9.80
2022-10-25T18:01:08.957Z,10.60
2022-10-25T18:03:36.153Z,12.40
2022-10-25T18:06:03.972Z,15.60
2022-10-25T18:08:31.151Z,21.80
2022-10-25T18:10:58.061Z,16.20
2022-10-25T18:13:25.364Z,16.50
2022-10-25T18:15:52.709Z,14.70
2022-10-25T18:18:19.848Z,13.50
2022-10-25T18:20:51.396Z,13.00
2022-10-25T18:23:19.137Z,11.20
2022-10-25T18:25:52.891Z,9.70
2022-10-25T18:28:19.855Z,8.50
2022-10-25T18:30:46.770Z,8.90
2022-10-25T18:33:15.018Z,8.80
2022-10-25T18:35:42.061Z,9.30
2022-10-25T18:38:09.207Z,8.50
2022-10-25T18:40:37.887Z,7.80
2022-10-25T18:43:05.001Z,9.20
2022-10-25T18:45:35.000Z,9.10
2022-10-25T18:48:01.942Z,8.20
2022-10-25T18:50:29.009Z,9.50
2022-10-25T18:52:55.939Z,9.80
2022-10-25T18:55:26.751Z,8.30
2022-10-25T18:57:54.849Z,8.80
2022-10-25T19:00:23.883Z,9.50
2022-10-25T19:02:53.815Z,8.80
2022-10-25T19:05:21.541Z,9.60
2022-10-25T19:07:48.710Z,9.60
2022-10-25T19:10:15.844Z,8.30
2022-10-25T19:12:42.874Z,9.40
2022-10-25T19:15:10.720Z,8.80
2022-10-25T19:17:37.756Z,9.60
2022-10-25T19:20:05.272Z,9.70
2022-10-25T19:22:32.196Z,8.80
2022-10-25T19:27:31.048Z,9.50
2022-10-25T19:29:58.077Z,9.30
2022-10-25T19:32:26.443Z,9.90
2022-10-25T19:34:53.433Z,10.60
2022-10-25T19:37:20.377Z,10.10
2022-10-25T19:39:47.964Z,9.70
2022-10-25T19:42:15.020Z,10.90
2022-10-25T19:44:44.385Z,10.90
2022-10-25T19:47:11.499Z,11.00
2022-10-25T19:49:38.431Z,12.50
2022-10-25T19:52:05.489Z,12.70
2022-10-25T19:54:32.561Z,10.20
2022-10-25T19:56:59.427Z,9.90
2022-10-25T19:59:26.357Z,9.00
2022-10-25T20:01:53.507Z,7.40
2022-10-25T20:04:20.451Z,7.20
2022-10-25T20:06:47.328Z,6.40
2022-10-25T20:09:14.548Z,6.60
2022-10-25T20:11:42.651Z,6.80
2022-10-25T20:14:09.690Z,6.40
2022-10-25T20:16:37.096Z,5.80
2022-10-25T20:23:00.747Z,7.40
2022-10-25T20:25:34.799Z,7.20
2022-10-25T20:28:04.598Z,6.40
2022-10-25T20:30:32.957Z,6.10
2022-10-25T20:32:59.933Z,6.40
2022-10-25T20:35:27.200Z,5.90
2022-10-25T20:37:54.293Z,5.70
2022-10-25T20:40:21.282Z,6.10
2022-10-25T20:42:48.351Z,6.10
2022-10-25T20:45:15.475Z,6.20
2022-10-25T20:47:43.028Z,5.90
2022-10-25T20:50:10.284Z,4.90
2022-10-25T20:52:47.611Z,4.80
2022-10-25T20:55:15.335Z,5.50
2022-10-25T20:57:42.998Z,5.20
2022-10-25T21:00:11.149Z,4.70
2022-10-25T21:02:38.309Z,4.60
2022-10-25T21:05:06.170Z,4.40
2022-10-25T21:07:33.334Z,4.30
2022-10-25T21:10:00.388Z,4.30
2022-10-25T21:12:27.454Z,4.40
2022-10-25T21:14:54.476Z,4.40
2022-10-25T21:17:21.543Z,5.30
2022-10-25T21:19:48.571Z,5.00
2022-10-25T21:22:15.632Z,4.80
2022-10-25T21:24:42.669Z,5.60
2022-10-25T21:27:10.743Z,6.00
2022-10-25T21:29:37.807Z,5.30
2022-10-25T21:32:05.447Z,5.00
2022-10-25T21:34:32.493Z,5.50
2022-10-25T21:36:59.540Z,5.20
2022-10-25T21:39:26.585Z,5.00
2022-10-25T21:41:53.866Z,5.60
2022-10-25T21:44:22.421Z,4.90
2022-10-25T21:46:49.775Z,4.70
2022-10-25T21:49:16.825Z,4.50
2022-10-25T21:51:43.871Z,5.00
2022-10-25T21:54:11.126Z,4.80
2022-10-25T21:56:38.199Z,5.10
2022-10-25T21:59:05.419Z,4.70
2022-10-25T22:01:32.528Z,4.10
2022-10-25T22:03:59.933Z,3.80
2022-10-25T22:06:27.688Z,4.60
2022-10-25T22:08:55.758Z,4.70
2022-10-25T22:11:27.607Z,4.60
2022-10-25T22:13:56.095Z,3.10
2022-10-25T22:16:23.394Z,3.20
2022-10-25T22:18:55.022Z,2.50
2022-10-25T22:21:22.156Z,2.50
2022-10-25T22:23:49.256Z,2.80
2022-10-25T22:26:17.788Z,2.40
2022-10-25T22:28:45.245Z,2.00
2022-10-25T22:31:14.569Z,1.90
2022-10-25T22:33:42.206Z,2.40
2022-10-25T22:36:16.072Z,2.00
2022-10-25T22:38:43.189Z,2.10
2022-10-25T22:41:12.668Z,2.30
2022-10-25T22:43:39.937Z,2.00
2022-10-25T22:46:08.606Z,2.40
2022-10-25T22:48:36.886Z,2.10
2022-10-25T22:51:04.445Z,2.30
2022-10-25T22:53:31.497Z,1.90
2022-10-25T22:56:05.808Z,2.00
2022-10-25T22:58:33.669Z,1.40
2022-10-25T23:01:14.952Z,1.20
2022-10-25T23:03:43.718Z,1.50
2022-10-25T23:06:12.627Z,1.20
2022-10-25T23:08:40.119Z,1.10
2022-10-25T23:11:13.964Z,1.60
2022-10-25T23:13:41.243Z,1.00
2022-10-25T23:16:08.732Z,1.30
2022-10-25T23:18:35.955Z,0.80
2022-10-25T23:21:03.348Z,1.30
2022-10-25T23:23:34.397Z,1.20
2022-10-25T23:26:01.654Z,1.00
2022-10-25T23:28:33.973Z,0.90
2022-10-25T23:31:09.027Z,1.00
2022-10-25T23:33:36.157Z,0.90
2022-10-25T23:36:11.318Z,1.30
2022-10-25T23:40:04.708Z,1.10
2022-10-25T23:42:31.664Z,0.90
2022-10-25T23:44:58.903Z,1.10
2022-10-25T23:47:25.912Z,1.30
2022-10-25T23:49:52.987Z,1.20
2022-10-25T23:52:20.008Z,1.50
2022-10-25T23:54:47.084Z,2.00
2022-10-25T23:57:14.100Z,1.10
2022-10-25T23:59:41.271Z,1.00
